sensor_id;sensor_type;location;lat;lon;timestamp;pressure;altitude;pressure_sealevel;temperature;humidity
72689;BME280;61053;52.166;4.506;2023-12-20T00:01:13;101474.31;;;6.93;100.00
72689;BME280;61053;52.166;4.506;2023-12-20T00:03:38;101475.03;;;6.97;100.00
72689;BME280;61053;52.166;4.506;2023-12-20T00:06:04;101473.59;;;6.90;100.00
72689;BME280;61053;52.166;4.506;2023-12-20T00:08:29;101470.59;;;6.97;100.00
72689;BME280;61053;52.166;4.506;2023-12-20T00:10:55;101462.81;;;6.93;100.00
72689;BME280;61053;52.166;4.506;2023-12-20T00:13:20;101462.91;;;6.91;100.00
72689;BME280;61053;52.166;4.506;2023-12-20T00:15:45;101465.22;;;6.99;100.00
72689;BME280;61053;52.166;4.506;2023-12-20T00:18:23;101457.59;;;6.91;100.00
72689;BME280;61053;52.166;4.506;2023-12-20T00:20:48;101453.78;;;6.97;100.00
72689;BME280;61053;52.166;4.506;2023-12-20T00:23:17;101459.13;;;6.76;100.00
72689;BME280;61053;52.166;4.506;2023-12-20T00:25:42;101459.22;;;6.75;100.00
72689;BME280;61053;52.166;4.506;2023-12-20T00:28:08;101455.38;;;6.82;100.00
72689;BME280;61053;52.166;4.506;2023-12-20T00:30:33;101465.13;;;6.61;100.00
72689;BME280;61053;52.166;4.506;2023-12-20T00:32:59;101458.88;;;6.62;100.00
72689;BME280;61053;52.166;4.506;2023-12-20T00:35:33;101456.81;;;6.69;100.00
72689;BME280;61053;52.166;4.506;2023-12-20T00:37:59;101456.03;;;6.67;100.00
72689;BME280;61053;52.166;4.506;2023-12-20T00:40:24;101461.44;;;6.65;100.00
72689;BME280;61053;52.166;4.506;2023-12-20T00:42:50;101452.72;;;6.62;100.00
72689;BME280;61053;52.166;4.506;2023-12-20T00:45:16;101459.78;;;6.63;100.00
72689;BME280;61053;52.166;4.506;2023-12-20T00:47:41;101456.91;;;6.67;100.00
72689;BME280;61053;52.166;4.506;2023-12-20T00:50:22;101463.19;;;6.65;100.00
72689;BME280;61053;52.166;4.506;2023-12-20T00:52:48;101466.25;;;6.76;100.00
72689;BME280;61053;52.166;4.506;2023-12-20T00:55:13;101466.13;;;6.79;100.00
72689;BME280;61053;52.166;4.506;2023-12-20T00:57:39;101470.09;;;6.89;100.00
72689;BME280;61053;52.166;4.506;2023-12-20T01:00:05;101466.28;;;6.95;100.00
72689;BME280;61053;52.166;4.506;2023-12-20T01:02:31;101474.25;;;6.95;100.00
72689;BME280;61053;52.166;4.506;2023-12-20T01:05:02;101474.91;;;7.00;100.00
72689;BME280;61053;52.166;4.506;2023-12-20T01:07:28;101465.47;;;6.93;100.00
72689;BME280;61053;52.166;4.506;2023-12-20T01:09:56;101461.25;;;6.89;100.00
72689;BME280;61053;52.166;4.506;2023-12-20T01:12:21;101460.66;;;6.82;100.00
72689;BME280;61053;52.166;4.506;2023-12-20T01:14:47;101452.66;;;7.03;100.00
72689;BME280;61053;52.166;4.506;2023-12-20T01:17:12;101454.22;;;7.07;100.00
72689;BME280;61053;52.166;4.506;2023-12-20T01:19:53;101457.03;;;7.04;100.00
72689;BME280;61053;52.166;4.506;2023-12-20T01:22:18;101458.53;;;7.09;100.00
72689;BME280;61053;52.166;4.506;2023-12-20T01:24:44;101461.56;;;7.02;100.00
72689;BME280;61053;52.166;4.506;2023-12-20T01:27:09;101455.88;;;7.09;100.00
72689;BME280;61053;52.166;4.506;2023-12-20T01:29:35;101453.53;;;7.03;100.00
72689;BME280;61053;52.166;4.506;2023-12-20T01:32:09;101464.84;;;7.07;100.00
72689;BME280;61053;52.166;4.506;2023-12-20T01:34:35;101457.31;;;6.97;100.00
72689;BME280;61053;52.166;4.506;2023-12-20T01:37:01;101455.22;;;7.04;100.00
72689;BME280;61053;52.166;4.506;2023-12-20T01:39:33;101449.66;;;7.10;100.00
72689;BME280;61053;52.166;4.506;2023-12-20T01:42:11;101460.75;;;7.00;100.00
72689;BME280;61053;52.166;4.506;2023-12-20T01:44:37;101459.53;;;7.07;100.00
72689;BME280;61053;52.166;4.506;2023-12-20T01:47:02;101468.59;;;7.03;100.00
72689;BME280;61053;52.166;4.506;2023-12-20T01:49:28;101459.03;;;6.98;100.00
72689;BME280;61053;52.166;4.506;2023-12-20T01:51:54;101454.75;;;6.96;100.00
72689;BME280;61053;52.166;4.506;2023-12-20T01:54:20;101451.50;;;7.08;100.00
72689;BME280;61053;52.166;4.506;2023-12-20T01:56:46;101441.03;;;7.05;100.00
72689;BME280;61053;52.166;4.506;2023-12-20T01:59:21;101439.59;;;6.98;100.00
72689;BME280;61053;52.166;4.506;2023-12-20T02:01:47;101432.91;;;6.89;100.00
72689;BME280;61053;52.166;4.506;2023-12-20T02:04:12;101456.06;;;6.86;100.00
72689;BME280;61053;52.166;4.506;2023-12-20T02:06:40;101447.84;;;6.92;100.00
72689;BME280;61053;52.166;4.506;2023-12-20T02:09:05;101455.16;;;6.87;100.00
72689;BME280;61053;52.166;4.506;2023-12-20T02:11:32;101457.66;;;6.90;100.00
72689;BME280;61053;52.166;4.506;2023-12-20T02:14:00;101447.19;;;6.87;100.00
72689;BME280;61053;52.166;4.506;2023-12-20T02:16:47;101450.84;;;6.84;100.00
72689;BME280;61053;52.166;4.506;2023-12-20T02:19:13;101457.31;;;6.97;100.00
72689;BME280;61053;52.166;4.506;2023-12-20T02:21:42;101446.78;;;6.96;100.00
72689;BME280;61053;52.166;4.506;2023-12-20T02:24:17;101442.94;;;6.83;100.00
72689;BME280;61053;52.166;4.506;2023-12-20T02:26:43;101445.75;;;6.80;100.00
72689;BME280;61053;52.166;4.506;2023-12-20T02:29:08;101442.69;;;6.68;100.00
72689;BME280;61053;52.166;4.506;2023-12-20T02:31:34;101442.50;;;6.73;100.00
72689;BME280;61053;52.166;4.506;2023-12-20T02:33:59;101443.44;;;6.72;100.00
72689;BME280;61053;52.166;4.506;2023-12-20T02:36:25;101440.22;;;6.84;100.00
72689;BME280;61053;52.166;4.506;2023-12-20T02:38:50;101441.63;;;6.72;100.00
72689;BME280;61053;52.166;4.506;2023-12-20T02:41:16;101429.88;;;6.78;100.00
72689;BME280;61053;52.166;4.506;2023-12-20T02:43:52;101439.63;;;6.78;100.00
72689;BME280;61053;52.166;4.506;2023-12-20T02:46:18;101427.97;;;6.82;100.00
72689;BME280;61053;52.166;4.506;2023-12-20T02:48:43;101424.28;;;6.84;100.00
72689;BME280;61053;52.166;4.506;2023-12-20T02:51:09;101420.31;;;6.74;100.00
72689;BME280;61053;52.166;4.506;2023-12-20T02:53:34;101412.34;;;6.74;100.00
72689;BME280;61053;52.166;4.506;2023-12-20T02:55:59;101408.78;;;6.75;100.00
72689;BME280;61053;52.166;4.506;2023-12-20T02:58:25;101409.63;;;6.75;100.00
72689;BME280;61053;52.166;4.506;2023-12-20T03:01:02;101416.59;;;6.78;100.00
72689;BME280;61053;52.166;4.506;2023-12-20T03:03:28;101419.84;;;6.85;100.00
72689;BME280;61053;52.166;4.506;2023-12-20T03:05:54;101423.09;;;6.91;100.00
72689;BME280;61053;52.166;4.506;2023-12-20T03:08:19;101428.25;;;6.94;100.00
72689;BME280;61053;52.166;4.506;2023-12-20T03:10:45;101421.28;;;6.92;100.00
72689;BME280;61053;52.166;4.506;2023-12-20T03:13:25;101411.25;;;6.98;100.00
72689;BME280;61053;52.166;4.506;2023-12-20T03:15:51;101424.38;;;7.02;100.00
72689;BME280;61053;52.166;4.506;2023-12-20T03:18:16;101411.88;;;6.85;100.00
72689;BME280;61053;52.166;4.506;2023-12-20T03:20:43;101417.84;;;6.90;100.00
72689;BME280;61053;52.166;4.506;2023-12-20T03:23:23;101408.44;;;6.83;100.00
72689;BME280;61053;52.166;4.506;2023-12-20T03:26:01;101401.47;;;6.80;100.00
72689;BME280;61053;52.166;4.506;2023-12-20T03:28:33;101409.59;;;6.77;100.00
72689;BME280;61053;52.166;4.506;2023-12-20T03:30:59;101401.38;;;6.63;100.00
72689;BME280;61053;52.166;4.506;2023-12-20T03:33:33;101422.25;;;6.70;100.00
72689;BME280;61053;52.166;4.506;2023-12-20T03:35:59;101413.03;;;6.79;100.00
72689;BME280;61053;52.166;4.506;2023-12-20T03:38:24;101407.94;;;6.74;100.00
72689;BME280;61053;52.166;4.506;2023-12-20T03:40:56;101413.28;;;6.73;100.00
72689;BME280;61053;52.166;4.506;2023-12-20T03:43:24;101409.38;;;6.82;100.00
72689;BME280;61053;52.166;4.506;2023-12-20T03:45:50;101421.06;;;6.78;100.00
72689;BME280;61053;52.166;4.506;2023-12-20T03:48:18;101410.59;;;6.74;100.00
72689;BME280;61053;52.166;4.506;2023-12-20T03:50:44;101415.41;;;6.65;100.00
72689;BME280;61053;52.166;4.506;2023-12-20T03:53:09;101408.63;;;6.78;100.00
72689;BME280;61053;52.166;4.506;2023-12-20T03:55:35;101406.69;;;6.63;100.00
72689;BME280;61053;52.166;4.506;2023-12-20T03:58:00;101391.75;;;6.60;100.00
72689;BME280;61053;52.166;4.506;2023-12-20T04:00:26;101395.56;;;6.73;100.00
72689;BME280;61053;52.166;4.506;2023-12-20T04:03:02;101400.50;;;6.62;100.00
72689;BME280;61053;52.166;4.506;2023-12-20T04:05:34;101405.91;;;6.61;100.00
72689;BME280;61053;52.166;4.506;2023-12-20T04:08:05;101412.75;;;6.65;100.00
72689;BME280;61053;52.166;4.506;2023-12-20T04:10:33;101407.25;;;6.69;100.00
72689;BME280;61053;52.166;4.506;2023-12-20T04:13:04;101404.31;;;6.57;100.00
72689;BME280;61053;52.166;4.506;2023-12-20T04:15:29;101407.47;;;6.65;100.00
72689;BME280;61053;52.166;4.506;2023-12-20T04:17:55;101403.16;;;6.62;100.00
72689;BME280;61053;52.166;4.506;2023-12-20T04:20:20;101409.66;;;6.55;100.00
72689;BME280;61053;52.166;4.506;2023-12-20T04:22:51;101408.00;;;6.52;100.00
72689;BME280;61053;52.166;4.506;2023-12-20T04:25:17;101403.25;;;6.61;100.00
72689;BME280;61053;52.166;4.506;2023-12-20T04:27:42;101397.13;;;6.59;100.00
72689;BME280;61053;52.166;4.506;2023-12-20T04:30:08;101406.41;;;6.48;100.00
72689;BME280;61053;52.166;4.506;2023-12-20T04:32:51;101395.09;;;6.45;100.00
72689;BME280;61053;52.166;4.506;2023-12-20T04:35:18;101389.09;;;6.60;100.00
72689;BME280;61053;52.166;4.506;2023-12-20T04:37:44;101393.69;;;6.57;100.00
72689;BME280;61053;52.166;4.506;2023-12-20T04:40:09;101395.78;;;6.69;100.00
72689;BME280;61053;52.166;4.506;2023-12-20T04:42:35;101379.00;;;6.68;100.00
72689;BME280;61053;52.166;4.506;2023-12-20T04:45:04;101380.44;;;6.75;100.00
72689;BME280;61053;52.166;4.506;2023-12-20T04:47:29;101386.81;;;6.71;100.00
72689;BME280;61053;52.166;4.506;2023-12-20T04:49:55;101364.66;;;6.91;100.00
72689;BME280;61053;52.166;4.506;2023-12-20T04:52:26;101368.75;;;6.98;100.00
72689;BME280;61053;52.166;4.506;2023-12-20T04:54:54;101359.84;;;6.81;100.00
72689;BME280;61053;52.166;4.506;2023-12-20T04:57:19;101359.16;;;6.77;100.00
72689;BME280;61053;52.166;4.506;2023-12-20T04:59:45;101362.00;;;6.72;100.00
72689;BME280;61053;52.166;4.506;2023-12-20T05:02:10;101363.72;;;6.73;100.00
72689;BME280;61053;52.166;4.506;2023-12-20T05:04:36;101381.88;;;6.64;100.00
72689;BME280;61053;52.166;4.506;2023-12-20T05:07:02;101380.91;;;6.65;100.00
72689;BME280;61053;52.166;4.506;2023-12-20T05:09:30;101389.88;;;6.62;100.00
72689;BME280;61053;52.166;4.506;2023-12-20T05:11:55;101377.75;;;6.57;100.00
72689;BME280;61053;52.166;4.506;2023-12-20T05:14:35;101383.66;;;6.63;100.00
72689;BME280;61053;52.166;4.506;2023-12-20T05:17:04;101388.63;;;6.71;100.00
72689;BME280;61053;52.166;4.506;2023-12-20T05:19:29;101394.25;;;6.84;100.00
72689;BME280;61053;52.166;4.506;2023-12-20T05:21:55;101392.72;;;6.97;100.00
72689;BME280;61053;52.166;4.506;2023-12-20T05:24:20;101388.34;;;6.96;100.00
72689;BME280;61053;52.166;4.506;2023-12-20T05:26:45;101374.97;;;6.97;100.00
72689;BME280;61053;52.166;4.506;2023-12-20T05:29:29;101372.31;;;6.97;100.00
72689;BME280;61053;52.166;4.506;2023-12-20T05:31:54;101368.53;;;7.03;100.00
72689;BME280;61053;52.166;4.506;2023-12-20T05:34:20;101372.00;;;7.05;100.00
72689;BME280;61053;52.166;4.506;2023-12-20T05:36:46;101371.91;;;7.07;100.00
72689;BME280;61053;52.166;4.506;2023-12-20T05:39:11;101368.31;;;7.08;100.00
72689;BME280;61053;52.166;4.506;2023-12-20T05:41:37;101365.66;;;7.08;100.00
72689;BME280;61053;52.166;4.506;2023-12-20T05:44:02;101365.50;;;7.11;100.00
72689;BME280;61053;52.166;4.506;2023-12-20T05:46:39;101352.28;;;7.09;100.00
72689;BME280;61053;52.166;4.506;2023-12-20T05:49:08;101359.91;;;7.17;100.00
72689;BME280;61053;52.166;4.506;2023-12-20T05:51:34;101362.69;;;7.33;100.00
72689;BME280;61053;52.166;4.506;2023-12-20T05:54:00;101369.09;;;7.29;100.00
72689;BME280;61053;52.166;4.506;2023-12-20T05:56:25;101368.38;;;7.25;100.00
72689;BME280;61053;52.166;4.506;2023-12-20T05:58:50;101374.19;;;7.33;100.00
72689;BME280;61053;52.166;4.506;2023-12-20T06:01:21;101385.16;;;7.26;100.00
72689;BME280;61053;52.166;4.506;2023-12-20T06:03:59;101378.72;;;7.31;100.00
72689;BME280;61053;52.166;4.506;2023-12-20T06:06:28;101379.16;;;7.22;100.00
72689;BME280;61053;52.166;4.506;2023-12-20T06:08:54;101369.88;;;7.31;100.00
72689;BME280;61053;52.166;4.506;2023-12-20T06:11:22;101362.47;;;7.37;100.00
72689;BME280;61053;52.166;4.506;2023-12-20T06:14:03;101365.94;;;7.21;100.00
72689;BME280;61053;52.166;4.506;2023-12-20T06:16:45;101380.56;;;7.29;100.00
72689;BME280;61053;52.166;4.506;2023-12-20T06:19:22;101374.00;;;7.19;100.00
72689;BME280;61053;52.166;4.506;2023-12-20T06:21:56;101361.97;;;7.29;100.00
72689;BME280;61053;52.166;4.506;2023-12-20T06:24:33;101368.66;;;7.38;100.00
72689;BME280;61053;52.166;4.506;2023-12-20T06:27:44;101367.00;;;7.35;100.00
72689;BME280;61053;52.166;4.506;2023-12-20T06:30:18;101370.38;;;7.20;100.00
72689;BME280;61053;52.166;4.506;2023-12-20T06:32:44;101370.31;;;7.22;100.00
72689;BME280;61053;52.166;4.506;2023-12-20T06:35:11;101361.13;;;7.29;100.00
72689;BME280;61053;52.166;4.506;2023-12-20T06:37:49;101361.28;;;7.07;100.00
72689;BME280;61053;52.166;4.506;2023-12-20T06:41:02;101360.50;;;7.05;100.00
72689;BME280;61053;52.166;4.506;2023-12-20T06:43:27;101366.59;;;7.07;100.00
72689;BME280;61053;52.166;4.506;2023-12-20T06:45:53;101358.06;;;7.00;100.00
72689;BME280;61053;52.166;4.506;2023-12-20T06:48:27;101355.47;;;6.98;100.00
72689;BME280;61053;52.166;4.506;2023-12-20T06:51:06;101347.13;;;7.06;100.00
72689;BME280;61053;52.166;4.506;2023-12-20T06:53:31;101351.75;;;7.03;100.00
72689;BME280;61053;52.166;4.506;2023-12-20T06:55:57;101348.53;;;6.96;100.00
72689;BME280;61053;52.166;4.506;2023-12-20T06:58:23;101344.06;;;6.96;100.00
72689;BME280;61053;52.166;4.506;2023-12-20T07:00:48;101338.81;;;6.95;100.00
72689;BME280;61053;52.166;4.506;2023-12-20T07:03:14;101328.34;;;6.92;100.00
72689;BME280;61053;52.166;4.506;2023-12-20T07:05:40;101324.03;;;6.89;100.00
72689;BME280;61053;52.166;4.506;2023-12-20T07:08:06;101334.16;;;6.81;100.00
72689;BME280;61053;52.166;4.506;2023-12-20T07:10:43;101323.19;;;6.89;100.00
72689;BME280;61053;52.166;4.506;2023-12-20T07:13:15;101335.53;;;6.90;100.00
72689;BME280;61053;52.166;4.506;2023-12-20T07:15:46;101325.22;;;6.84;100.00
72689;BME280;61053;52.166;4.506;2023-12-20T07:18:20;101328.19;;;6.76;100.00
72689;BME280;61053;52.166;4.506;2023-12-20T07:20:48;101331.50;;;6.81;100.00
72689;BME280;61053;52.166;4.506;2023-12-20T07:23:14;101320.81;;;6.83;100.00
72689;BME280;61053;52.166;4.506;2023-12-20T07:25:45;101320.25;;;6.76;100.00
72689;BME280;61053;52.166;4.506;2023-12-20T07:28:19;101322.41;;;6.87;100.00
72689;BME280;61053;52.166;4.506;2023-12-20T07:30:45;101320.97;;;6.98;100.00
72689;BME280;61053;52.166;4.506;2023-12-20T07:33:16;101320.00;;;7.00;100.00
72689;BME280;61053;52.166;4.506;2023-12-20T07:35:45;101337.91;;;6.96;100.00
72689;BME280;61053;52.166;4.506;2023-12-20T07:38:14;101330.50;;;7.03;100.00
72689;BME280;61053;52.166;4.506;2023-12-20T07:40:42;101353.19;;;7.10;100.00
72689;BME280;61053;52.166;4.506;2023-12-20T07:43:08;101352.75;;;7.00;100.00
72689;BME280;61053;52.166;4.506;2023-12-20T07:45:33;101341.75;;;7.08;100.00
72689;BME280;61053;52.166;4.506;2023-12-20T07:47:59;101349.56;;;7.11;100.00
72689;BME280;61053;52.166;4.506;2023-12-20T07:50:25;101350.56;;;7.27;100.00
72689;BME280;61053;52.166;4.506;2023-12-20T07:52:51;101347.03;;;7.27;100.00
72689;BME280;61053;52.166;4.506;2023-12-20T07:55:16;101351.91;;;7.36;100.00
72689;BME280;61053;52.166;4.506;2023-12-20T07:57:42;101351.13;;;7.34;100.00
72689;BME280;61053;52.166;4.506;2023-12-20T08:00:08;101368.72;;;7.36;100.00
72689;BME280;61053;52.166;4.506;2023-12-20T08:02:34;101353.78;;;7.34;100.00
72689;BME280;61053;52.166;4.506;2023-12-20T08:05:00;101359.25;;;7.31;100.00
72689;BME280;61053;52.166;4.506;2023-12-20T08:07:28;101365.19;;;7.36;100.00
72689;BME280;61053;52.166;4.506;2023-12-20T08:09:53;101359.72;;;7.39;100.00
72689;BME280;61053;52.166;4.506;2023-12-20T08:12:21;101358.25;;;7.33;100.00
72689;BME280;61053;52.166;4.506;2023-12-20T08:14:46;101357.63;;;7.46;100.00
72689;BME280;61053;52.166;4.506;2023-12-20T08:17:12;101354.25;;;7.42;100.00
72689;BME280;61053;52.166;4.506;2023-12-20T08:19:37;101345.53;;;7.40;100.00
72689;BME280;61053;52.166;4.506;2023-12-20T08:22:03;101351.59;;;7.42;100.00
72689;BME280;61053;52.166;4.506;2023-12-20T08:24:29;101354.03;;;7.47;100.00
72689;BME280;61053;52.166;4.506;2023-12-20T08:26:55;101350.06;;;7.55;100.00
72689;BME280;61053;52.166;4.506;2023-12-20T08:29:20;101351.88;;;7.55;100.00
72689;BME280;61053;52.166;4.506;2023-12-20T08:31:46;101344.56;;;7.58;100.00
72689;BME280;61053;52.166;4.506;2023-12-20T08:34:11;101346.16;;;7.63;100.00
72689;BME280;61053;52.166;4.506;2023-12-20T08:36:39;101363.06;;;7.61;100.00
72689;BME280;61053;52.166;4.506;2023-12-20T08:39:05;101356.78;;;7.63;100.00
72689;BME280;61053;52.166;4.506;2023-12-20T08:41:32;101358.59;;;7.62;100.00
72689;BME280;61053;52.166;4.506;2023-12-20T08:43:58;101361.25;;;7.79;100.00
72689;BME280;61053;52.166;4.506;2023-12-20T08:46:26;101359.31;;;7.66;100.00
72689;BME280;61053;52.166;4.506;2023-12-20T08:48:51;101379.25;;;7.74;100.00
72689;BME280;61053;52.166;4.506;2023-12-20T08:51:17;101379.34;;;7.73;100.00
72689;BME280;61053;52.166;4.506;2023-12-20T08:53:44;101378.78;;;7.83;100.00
72689;BME280;61053;52.166;4.506;2023-12-20T08:56:10;101364.47;;;7.69;100.00
72689;BME280;61053;52.166;4.506;2023-12-20T08:58:37;101353.66;;;7.72;100.00
72689;BME280;61053;52.166;4.506;2023-12-20T09:01:02;101350.38;;;7.84;100.00
72689;BME280;61053;52.166;4.506;2023-12-20T09:03:28;101354.94;;;7.82;100.00
72689;BME280;61053;52.166;4.506;2023-12-20T09:05:56;101350.31;;;7.86;100.00
72689;BME280;61053;52.166;4.506;2023-12-20T09:08:22;101355.09;;;7.96;100.00
72689;BME280;61053;52.166;4.506;2023-12-20T09:10:47;101348.66;;;8.00;100.00
72689;BME280;61053;52.166;4.506;2023-12-20T09:13:13;101352.03;;;8.04;100.00
72689;BME280;61053;52.166;4.506;2023-12-20T09:15:39;101327.94;;;8.07;100.00
72689;BME280;61053;52.166;4.506;2023-12-20T09:18:04;101332.47;;;8.05;100.00
72689;BME280;61053;52.166;4.506;2023-12-20T09:20:30;101329.97;;;8.02;100.00
72689;BME280;61053;52.166;4.506;2023-12-20T09:23:13;101344.28;;;7.99;100.00
72689;BME280;61053;52.166;4.506;2023-12-20T09:25:39;101329.97;;;8.02;100.00
72689;BME280;61053;52.166;4.506;2023-12-20T09:28:05;101351.66;;;7.94;100.00
72689;BME280;61053;52.166;4.506;2023-12-20T09:30:30;101351.41;;;7.99;100.00
72689;BME280;61053;52.166;4.506;2023-12-20T09:32:57;101352.66;;;8.09;100.00
72689;BME280;61053;52.166;4.506;2023-12-20T09:35:35;101350.06;;;8.08;100.00
72689;BME280;61053;52.166;4.506;2023-12-20T09:38:00;101349.69;;;8.15;100.00
72689;BME280;61053;52.166;4.506;2023-12-20T09:40:26;101346.78;;;8.20;100.00
72689;BME280;61053;52.166;4.506;2023-12-20T09:43:10;101344.91;;;8.22;100.00
72689;BME280;61053;52.166;4.506;2023-12-20T09:45:39;101361.06;;;8.35;100.00
72689;BME280;61053;52.166;4.506;2023-12-20T09:48:12;101362.31;;;8.45;100.00
72689;BME280;61053;52.166;4.506;2023-12-20T09:50:47;101375.16;;;8.54;99.43
72689;BME280;61053;52.166;4.506;2023-12-20T09:53:15;101369.84;;;8.37;98.99
72689;BME280;61053;52.166;4.506;2023-12-20T09:55:42;101372.97;;;8.45;100.00
72689;BME280;61053;52.166;4.506;2023-12-20T09:58:07;101366.00;;;8.42;99.38
72689;BME280;61053;52.166;4.506;2023-12-20T10:00:34;101356.06;;;8.46;99.03
72689;BME280;61053;52.166;4.506;2023-12-20T10:03:01;101368.66;;;8.42;98.17
72689;BME280;61053;52.166;4.506;2023-12-20T10:05:28;101371.25;;;8.44;98.99
72689;BME280;61053;52.166;4.506;2023-12-20T10:07:54;101364.97;;;8.45;99.19
72689;BME280;61053;52.166;4.506;2023-12-20T10:10:21;101368.91;;;8.55;98.66
72689;BME280;61053;52.166;4.506;2023-12-20T10:13:05;101376.03;;;8.71;99.30
72689;BME280;61053;52.166;4.506;2023-12-20T10:15:36;101382.31;;;8.70;97.81
72689;BME280;61053;52.166;4.506;2023-12-20T10:18:03;101374.44;;;8.84;97.88
72689;BME280;61053;52.166;4.506;2023-12-20T10:20:30;101379.09;;;8.96;97.67
72689;BME280;61053;52.166;4.506;2023-12-20T10:22:57;101384.94;;;9.03;97.96
72689;BME280;61053;52.166;4.506;2023-12-20T10:25:24;101366.44;;;8.84;97.21
72689;BME280;61053;52.166;4.506;2023-12-20T10:27:57;101372.88;;;8.80;98.04
72689;BME280;61053;52.166;4.506;2023-12-20T10:30:46;101362.22;;;8.80;97.54
72689;BME280;61053;52.166;4.506;2023-12-20T10:33:11;101378.72;;;8.86;97.57
72689;BME280;61053;52.166;4.506;2023-12-20T10:35:38;101368.59;;;8.93;98.75
72689;BME280;61053;52.166;4.506;2023-12-20T10:38:05;101372.91;;;9.12;96.81
72689;BME280;61053;52.166;4.506;2023-12-20T10:40:35;101351.16;;;9.19;96.44
72689;BME280;61053;52.166;4.506;2023-12-20T10:43:04;101346.00;;;9.16;96.62
72689;BME280;61053;52.166;4.506;2023-12-20T10:45:30;101347.13;;;9.28;96.08
72689;BME280;61053;52.166;4.506;2023-12-20T10:47:57;101343.19;;;9.65;95.59
72689;BME280;61053;52.166;4.506;2023-12-20T10:50:26;101339.13;;;10.19;93.62
72689;BME280;61053;52.166;4.506;2023-12-20T10:52:54;101329.06;;;10.52;90.44
72689;BME280;61053;52.166;4.506;2023-12-20T10:55:27;101319.69;;;10.74;89.22
72689;BME280;61053;52.166;4.506;2023-12-20T10:58:09;101327.81;;;10.29;87.58
72689;BME280;61053;52.166;4.506;2023-12-20T11:00:39;101329.28;;;10.05;90.18
72689;BME280;61053;52.166;4.506;2023-12-20T11:03:11;101338.66;;;9.82;90.65
72689;BME280;61053;52.166;4.506;2023-12-20T11:05:49;101314.38;;;9.56;93.61
72689;BME280;61053;52.166;4.506;2023-12-20T11:08:31;101325.09;;;9.24;94.67
72689;BME280;61053;52.166;4.506;2023-12-20T11:11:08;101330.09;;;9.30;95.57
72689;BME280;61053;52.166;4.506;2023-12-20T11:14:18;101321.84;;;9.19;94.21
72689;BME280;61053;52.166;4.506;2023-12-20T11:16:48;101324.09;;;9.11;95.21
72689;BME280;61053;52.166;4.506;2023-12-20T11:19:14;101333.63;;;9.15;95.95
72689;BME280;61053;52.166;4.506;2023-12-20T11:21:40;101313.84;;;9.35;94.97
72689;BME280;61053;52.166;4.506;2023-12-20T11:24:06;101309.72;;;9.29;95.24
72689;BME280;61053;52.166;4.506;2023-12-20T11:26:32;101299.47;;;9.38;95.20
72689;BME280;61053;52.166;4.506;2023-12-20T11:29:32;101307.28;;;9.41;94.80
72689;BME280;61053;52.166;4.506;2023-12-20T11:34:54;101290.13;;;9.15;95.20
72689;BME280;61053;52.166;4.506;2023-12-20T11:37:21;101291.34;;;9.09;95.49
72689;BME280;61053;52.166;4.506;2023-12-20T11:39:56;101287.19;;;9.19;96.44
72689;BME280;61053;52.166;4.506;2023-12-20T11:42:25;101288.56;;;9.11;96.58
72689;BME280;61053;52.166;4.506;2023-12-20T11:44:50;101289.63;;;9.08;96.95
72689;BME280;61053;52.166;4.506;2023-12-20T11:47:16;101291.59;;;9.04;97.20
72689;BME280;61053;52.166;4.506;2023-12-20T11:49:44;101281.09;;;9.17;97.39
72689;BME280;61053;52.166;4.506;2023-12-20T11:52:12;101297.09;;;9.17;96.85
72689;BME280;61053;52.166;4.506;2023-12-20T11:54:38;101293.81;;;9.12;97.03
72689;BME280;61053;52.166;4.506;2023-12-20T11:57:10;101285.22;;;9.23;96.23
72689;BME280;61053;52.166;4.506;2023-12-20T11:59:36;101292.00;;;9.13;95.85
72689;BME280;61053;52.166;4.506;2023-12-20T12:02:01;101292.28;;;9.08;96.37
72689;BME280;61053;52.166;4.506;2023-12-20T12:04:34;101295.91;;;9.07;95.39
72689;BME280;61053;52.166;4.506;2023-12-20T12:07:00;101295.69;;;9.26;95.67
72689;BME280;61053;52.166;4.506;2023-12-20T12:09:25;101291.09;;;9.14;95.85
72689;BME280;61053;52.166;4.506;2023-12-20T12:11:57;101288.06;;;9.20;95.42
72689;BME280;61053;52.166;4.506;2023-12-20T12:14:22;101292.28;;;9.08;95.99
72689;BME280;61053;52.166;4.506;2023-12-20T12:16:49;101283.16;;;9.12;97.10
72689;BME280;61053;52.166;4.506;2023-12-20T12:19:25;101280.09;;;9.04;97.07
72689;BME280;61053;52.166;4.506;2023-12-20T12:22:10;101270.53;;;9.16;96.30
72689;BME280;61053;52.166;4.506;2023-12-20T12:24:41;101259.78;;;9.17;96.52
72689;BME280;61053;52.166;4.506;2023-12-20T12:27:10;101259.50;;;9.22;96.40
72689;BME280;61053;52.166;4.506;2023-12-20T12:29:37;101257.94;;;9.34;95.93
72689;BME280;61053;52.166;4.506;2023-12-20T12:32:05;101259.78;;;9.47;95.64
72689;BME280;61053;52.166;4.506;2023-12-20T12:34:32;101252.03;;;9.28;96.21
72689;BME280;61053;52.166;4.506;2023-12-20T12:36:59;101245.97;;;9.41;95.36
72689;BME280;61053;52.166;4.506;2023-12-20T12:39:25;101250.31;;;9.27;96.14
72689;BME280;61053;52.166;4.506;2023-12-20T12:41:51;101242.09;;;9.16;95.74
72689;BME280;61053;52.166;4.506;2023-12-20T12:44:17;101247.72;;;9.26;96.93
72689;BME280;61053;52.166;4.506;2023-12-20T12:46:44;101248.44;;;9.29;96.35
72689;BME280;61053;52.166;4.506;2023-12-20T12:49:11;101240.28;;;9.17;96.11
72689;BME280;61053;52.166;4.506;2023-12-20T12:51:39;101241.69;;;9.22;96.39
72689;BME280;61053;52.166;4.506;2023-12-20T12:54:12;101238.66;;;9.14;94.53
72689;BME280;61053;52.166;4.506;2023-12-20T12:56:44;101237.56;;;9.02;96.33
72689;BME280;61053;52.166;4.506;2023-12-20T12:59:12;101227.28;;;9.11;96.77
72689;BME280;61053;52.166;4.506;2023-12-20T13:01:40;101219.41;;;9.09;96.27
72689;BME280;61053;52.166;4.506;2023-12-20T13:04:14;101206.63;;;9.00;96.63